Zetus, Mississippi
Current Conditions -  °F | °C
As of 10:53 AM on Friday 19 Dec 2014 (Local Time) from KMCB Reporting Station
Overcast Overcast  
Wind Chill: 42°   Ceiling: 1100
Heat Index: 47°   Visibility: 10mi
Dew Point: 43°   Wind: 10mph
Humidity: 86%   Direction: 70°ENE
Pressure: 30.12"   Gusts: NA
Location:  31.5898°N, 90.4722°W
Report Text: KMCB 191653Z AUTO 07009KT 10SM OVC011 08/06 A3012 RMK AO2 SLP199 T00830061
Loading
Personal Weather Stations






























Interactive Weather Map New forecast layout! Learn more

10-Day Weather Forecast

Advertisements
Track Severe Weather on mobile